createdAt,value
2023-03-27T00:01:07.865Z,98401.06
2023-03-27T00:04:11.244Z,98386.53
2023-03-27T00:07:20.615Z,98387.75
2023-03-27T00:10:24.590Z,98381.59
2023-03-27T00:13:28.322Z,98386.31
2023-03-27T00:16:31.970Z,98385.06
2023-03-27T00:19:34.638Z,98371.56
2023-03-27T00:22:37.454Z,98368.28
2023-03-27T00:25:40.827Z,98362.34
2023-03-27T00:28:43.704Z,98354.59
2023-03-27T00:31:46.367Z,98358.28
2023-03-27T00:34:49.306Z,98346.59
2023-03-27T00:37:52.326Z,98348.03
2023-03-27T00:40:57.608Z,98346.94
2023-03-27T00:44:00.394Z,98342.25
2023-03-27T00:47:04.364Z,98345.09
2023-03-27T00:50:11.553Z,98329.94
2023-03-27T00:53:21.186Z,98325.44
2023-03-27T00:56:24.771Z,98326.69
2023-03-27T00:59:32.776Z,98313.59
2023-03-27T01:02:35.779Z,98312.75
2023-03-27T01:05:38.728Z,98303.34
2023-03-27T01:08:43.066Z,98293.94
2023-03-27T01:12:11.143Z,98297.41
2023-03-27T01:15:23.812Z,98285.56
2023-03-27T01:18:27.019Z,98273.28
2023-03-27T01:21:51.962Z,98264.69
2023-03-27T01:25:11.928Z,98253.25
2023-03-27T01:28:30.050Z,98254.91
2023-03-27T01:31:39.101Z,98258.81
2023-03-27T01:35:02.992Z,98252.19
2023-03-27T01:38:24.974Z,98238.47
2023-03-27T01:41:32.382Z,98232.94
2023-03-27T01:44:48.338Z,98248.56
2023-03-27T01:48:00.044Z,98241.59
2023-03-27T01:51:17.818Z,98242.75
2023-03-27T01:54:33.731Z,98241.69
2023-03-27T01:57:49.379Z,98243.94
2023-03-27T02:00:56.555Z,98237.59
2023-03-27T02:04:03.068Z,98239.22
2023-03-27T02:07:12.420Z,98230.81
2023-03-27T02:10:21.753Z,98228.62
2023-03-27T02:13:34.879Z,98225.75
2023-03-27T02:16:42.669Z,98228.59
2023-03-27T02:19:59.921Z,98225.28
2023-03-27T02:23:03.027Z,98230.34
2023-03-27T02:26:06.415Z,98229.94
2023-03-27T02:29:21.362Z,98219.44
2023-03-27T02:32:33.435Z,98223.19
2023-03-27T02:35:50.014Z,98206.22
2023-03-27T02:39:08.877Z,98204.50
2023-03-27T02:42:34.799Z,98184.09
2023-03-27T02:45:41.089Z,98162.66
2023-03-27T02:48:50.101Z,98151.00
2023-03-27T02:52:01.252Z,98142.41
2023-03-27T02:55:09.293Z,98146.00
2023-03-27T02:58:19.496Z,98136.72
2023-03-27T03:01:23.655Z,98141.16
2023-03-27T03:04:41.930Z,98136.66
2023-03-27T03:07:46.256Z,98130.94
2023-03-27T03:10:50.500Z,98131.56
2023-03-27T03:13:53.126Z,98121.34
2023-03-27T03:16:56.141Z,98123.56
2023-03-27T03:19:58.824Z,98119.72
2023-03-27T03:23:02.470Z,98122.72
2023-03-27T03:26:06.624Z,98118.56
2023-03-27T03:29:11.878Z,98124.34
2023-03-27T03:32:16.181Z,98121.09
2023-03-27T03:35:19.154Z,98121.13
2023-03-27T03:38:26.580Z,98113.72
2023-03-27T03:41:29.700Z,98118.19
2023-03-27T03:44:37.131Z,98123.03
2023-03-27T03:47:42.039Z,98112.50
2023-03-27T03:50:46.909Z,98113.84
2023-03-27T03:53:50.317Z,98110.31
2023-03-27T03:56:53.366Z,98118.50
2023-03-27T03:59:58.346Z,98113.16
2023-03-27T04:03:05.700Z,98112.50
2023-03-27T04:06:10.919Z,98106.59
2023-03-27T04:09:13.760Z,98108.44
2023-03-27T04:12:18.621Z,98097.00
2023-03-27T04:15:22.085Z,98106.06
2023-03-27T04:18:32.703Z,98100.75
2023-03-27T04:21:36.515Z,98114.53
2023-03-27T04:24:40.202Z,98105.28
2023-03-27T04:27:44.228Z,98109.88
2023-03-27T04:30:58.347Z,98112.16
2023-03-27T04:34:05.427Z,98103.56
2023-03-27T04:37:14.728Z,98104.66
2023-03-27T04:40:20.897Z,98103.00
2023-03-27T04:43:26.147Z,98100.59
2023-03-27T04:46:29.540Z,98104.94
2023-03-27T04:49:38.751Z,98101.84
2023-03-27T04:52:43.119Z,98095.72
2023-03-27T04:55:47.271Z,98090.91
2023-03-27T04:58:49.931Z,98098.56
2023-03-27T05:01:52.833Z,98097.38
2023-03-27T05:04:58.395Z,98085.94
2023-03-27T05:08:01.816Z,98089.47
2023-03-27T05:11:04.953Z,98077.00
2023-03-27T05:14:11.391Z,98076.09
2023-03-27T05:17:18.246Z,98071.00
2023-03-27T05:20:22.627Z,98066.03
2023-03-27T05:23:26.385Z,98060.94
2023-03-27T05:26:29.344Z,98059.50
2023-03-27T05:29:46.673Z,98053.94
2023-03-27T05:32:52.584Z,98052.56
2023-03-27T05:35:58.648Z,98058.00
2023-03-27T05:39:02.273Z,98057.22
2023-03-27T05:42:05.527Z,98057.47
2023-03-27T05:45:09.667Z,98053.56
2023-03-27T05:48:14.948Z,98050.06
2023-03-27T05:51:18.085Z,98052.69
2023-03-27T05:54:20.808Z,98043.78
2023-03-27T05:57:24.063Z,98047.41
2023-03-27T06:00:34.105Z,98041.87
2023-03-27T06:03:38.538Z,98034.16
2023-03-27T06:06:41.859Z,98049.00
2023-03-27T06:09:45.316Z,98042.50
2023-03-27T06:13:08.818Z,98035.66
2023-03-27T06:16:12.030Z,98039.25
2023-03-27T06:19:15.747Z,98031.56
2023-03-27T06:22:20.076Z,98033.31
2023-03-27T06:25:24.134Z,98028.25
2023-03-27T06:28:27.007Z,98030.94
2023-03-27T06:31:29.719Z,98031.16
2023-03-27T06:34:36.690Z,98029.50
2023-03-27T06:37:42.776Z,98030.41
2023-03-27T06:40:46.481Z,98026.34
2023-03-27T06:43:49.755Z,98029.16
2023-03-27T06:46:58.786Z,98020.88
2023-03-27T06:50:02.178Z,98027.63
2023-03-27T06:53:15.908Z,98016.09
2023-03-27T06:56:26.567Z,98008.50
2023-03-27T06:59:43.180Z,98016.25
2023-03-27T07:02:47.005Z,98015.91
2023-03-27T07:05:51.514Z,98008.81
2023-03-27T07:08:54.600Z,98014.84
2023-03-27T07:11:58.409Z,98015.72
2023-03-27T07:15:00.965Z,98012.44
2023-03-27T07:18:06.842Z,98015.94
2023-03-27T07:21:09.788Z,98028.13
2023-03-27T07:24:13.514Z,98024.47
2023-03-27T07:27:16.532Z,98029.53
2023-03-27T07:30:20.221Z,98043.00
2023-03-27T07:33:23.346Z,98040.66
2023-03-27T07:36:26.561Z,98043.50
2023-03-27T07:39:30.428Z,98042.59
2023-03-27T07:42:34.612Z,98040.09
2023-03-27T07:45:37.804Z,98038.94
2023-03-27T07:48:41.298Z,98036.31
2023-03-27T07:51:50.062Z,98045.03
2023-03-27T07:54:53.016Z,98049.28
2023-03-27T07:58:01.311Z,98045.84
2023-03-27T08:01:07.787Z,98053.94
2023-03-27T08:04:11.676Z,98047.09
2023-03-27T08:07:14.848Z,98047.25
2023-03-27T08:10:18.144Z,98042.34
2023-03-27T08:13:21.363Z,98045.00
2023-03-27T08:16:27.794Z,98028.94
2023-03-27T08:19:33.529Z,98028.69
2023-03-27T08:22:38.449Z,98032.66
2023-03-27T08:25:50.486Z,98039.34
2023-03-27T08:28:54.344Z,98050.94
2023-03-27T08:31:57.960Z,98053.38
2023-03-27T08:35:00.797Z,98061.09
2023-03-27T08:38:07.388Z,98051.06
2023-03-27T08:41:38.807Z,98059.25
2023-03-27T08:44:43.066Z,98060.41
2023-03-27T08:47:52.292Z,98065.41
2023-03-27T08:50:59.719Z,98068.53
2023-03-27T08:54:26.288Z,98071.72
2023-03-27T08:57:32.549Z,98076.72
2023-03-27T09:00:39.712Z,98071.72
2023-03-27T09:03:50.331Z,98075.91
2023-03-27T09:07:11.470Z,98079.94
2023-03-27T09:10:41.540Z,98083.41
2023-03-27T09:13:50.042Z,98079.75
2023-03-27T09:16:55.798Z,98088.37
2023-03-27T09:20:06.371Z,98091.56
2023-03-27T09:23:12.313Z,98100.59
2023-03-27T09:26:28.948Z,98102.78
2023-03-27T09:29:42.553Z,98102.06
2023-03-27T09:32:51.607Z,98109.44
2023-03-27T09:35:56.976Z,98109.25
2023-03-27T09:39:08.440Z,98106.72
2023-03-27T09:42:17.322Z,98112.97
2023-03-27T09:45:21.815Z,98117.31
2023-03-27T09:49:05.038Z,98121.53
2023-03-27T09:52:08.568Z,98124.63
2023-03-27T09:55:34.249Z,98134.81
2023-03-27T09:58:43.565Z,98138.72
2023-03-27T10:01:48.691Z,98136.84
2023-03-27T10:04:58.290Z,98139.50
2023-03-27T10:08:27.283Z,98127.06
2023-03-27T10:11:33.000Z,98145.22
2023-03-27T10:14:42.875Z,98144.13
2023-03-27T10:17:48.173Z,98130.72
2023-03-27T10:20:57.234Z,98141.13
2023-03-27T10:24:04.348Z,98142.75
2023-03-27T10:27:14.267Z,98144.34
2023-03-27T10:30:30.541Z,98153.09
2023-03-27T10:33:36.734Z,98156.47
2023-03-27T10:36:47.068Z,98157.00
2023-03-27T10:39:52.554Z,98159.81
2023-03-27T10:43:03.674Z,98155.94
2023-03-27T10:46:15.977Z,98161.50
2023-03-27T10:49:22.128Z,98158.22
2023-03-27T10:52:48.861Z,98157.63
2023-03-27T10:56:02.652Z,98156.63
2023-03-27T10:59:16.440Z,98159.97
2023-03-27T11:02:38.932Z,98164.03
2023-03-27T11:05:47.311Z,98164.69
2023-03-27T11:08:58.346Z,98162.84
2023-03-27T11:12:10.428Z,98163.09
2023-03-27T11:15:36.907Z,98175.28
2023-03-27T11:19:11.439Z,98173.50
2023-03-27T11:22:36.608Z,98180.00
2023-03-27T11:25:46.985Z,98187.47
2023-03-27T11:29:02.712Z,98195.94
2023-03-27T11:32:23.278Z,98190.88
2023-03-27T11:35:37.700Z,98185.03
2023-03-27T11:38:48.343Z,98192.84
2023-03-27T11:41:57.553Z,98188.97
2023-03-27T11:45:04.524Z,98205.19
2023-03-27T11:48:47.694Z,98207.03
2023-03-27T11:52:02.031Z,98196.44
2023-03-27T11:55:16.893Z,98201.09
2023-03-27T11:58:29.886Z,98197.28
2023-03-27T12:01:38.289Z,98205.03
2023-03-27T12:05:01.802Z,98210.13
2023-03-27T12:08:10.034Z,98207.38
2023-03-27T12:11:13.415Z,98222.31
2023-03-27T12:14:18.507Z,98220.50
2023-03-27T12:17:40.602Z,98222.91
2023-03-27T12:20:52.831Z,98222.25
2023-03-27T12:24:14.606Z,98234.56
2023-03-27T12:27:23.358Z,98243.47
2023-03-27T12:30:57.178Z,98242.66
2023-03-27T12:34:05.515Z,98251.41
2023-03-27T12:37:12.226Z,98232.03
2023-03-27T12:40:41.893Z,98241.88
2023-03-27T12:43:46.853Z,98244.50
2023-03-27T12:47:26.052Z,98254.91
2023-03-27T12:50:36.944Z,98260.19
2023-03-27T12:53:39.940Z,98262.25
2023-03-27T12:56:43.736Z,98263.09
2023-03-27T12:59:46.781Z,98261.41
2023-03-27T13:03:02.796Z,98279.09
2023-03-27T13:06:12.717Z,98295.81
2023-03-27T13:09:56.821Z,98283.09
2023-03-27T13:13:05.682Z,98293.87
2023-03-27T13:16:14.106Z,98297.84
2023-03-27T13:19:39.327Z,98323.78
2023-03-27T13:23:06.381Z,98327.25
2023-03-27T13:26:37.715Z,98328.94
2023-03-27T13:29:41.260Z,98341.69
2023-03-27T13:33:13.743Z,98355.72
2023-03-27T13:36:21.659Z,98364.56
2023-03-27T13:39:25.397Z,98370.66
2023-03-27T13:42:51.065Z,98389.69
2023-03-27T13:45:57.372Z,98402.28
2023-03-27T13:49:23.140Z,98398.34
2023-03-27T13:52:53.708Z,98418.09
2023-03-27T13:56:13.826Z,98449.97
2023-03-27T13:59:40.689Z,98441.09
2023-03-27T14:03:02.744Z,98453.66
2023-03-27T14:06:27.041Z,98465.66
2023-03-27T14:10:07.168Z,98477.91
2023-03-27T14:13:27.844Z,98492.28
2023-03-27T14:16:46.175Z,98508.88
2023-03-27T14:19:55.272Z,98517.44
2023-03-27T14:23:02.016Z,98516.66
2023-03-27T14:26:07.323Z,98522.28
2023-03-27T14:29:11.533Z,98533.00
2023-03-27T14:32:18.045Z,98527.91
2023-03-27T14:35:29.853Z,98548.19
2023-03-27T14:38:37.390Z,98556.59
2023-03-27T14:41:57.813Z,98566.66
2023-03-27T14:45:32.051Z,98579.38
2023-03-27T14:48:42.490Z,98579.31
2023-03-27T14:51:48.094Z,98595.66
2023-03-27T14:54:55.569Z,98600.94
2023-03-27T14:58:10.845Z,98621.25
2023-03-27T15:01:17.192Z,98610.97
2023-03-27T15:04:25.127Z,98611.16
2023-03-27T15:07:33.739Z,98617.22
2023-03-27T15:10:37.371Z,98636.69
2023-03-27T15:13:41.648Z,98649.00
2023-03-27T15:16:55.323Z,98650.19
2023-03-27T15:20:10.206Z,98650.84
2023-03-27T15:23:28.512Z,98674.87
2023-03-27T15:26:32.181Z,98677.78
2023-03-27T15:29:39.041Z,98684.59
2023-03-27T15:32:50.150Z,98692.09
2023-03-27T15:35:56.188Z,98713.87
2023-03-27T15:39:04.138Z,98705.94
2023-03-27T15:42:13.042Z,98712.50
2023-03-27T15:45:17.726Z,98723.84
2023-03-27T15:48:31.086Z,98729.19
2023-03-27T15:51:34.109Z,98733.41
2023-03-27T15:54:53.998Z,98758.31
2023-03-27T15:57:56.504Z,98764.19
2023-03-27T16:01:02.834Z,98782.69
2023-03-27T16:04:36.539Z,98801.34
2023-03-27T16:07:39.048Z,98804.16
2023-03-27T16:10:48.211Z,98818.59
2023-03-27T16:13:59.120Z,98824.38
2023-03-27T16:17:21.323Z,98833.69
2023-03-27T16:20:35.544Z,98824.66
2023-03-27T16:23:39.085Z,98856.78
2023-03-27T16:26:41.957Z,98865.84
2023-03-27T16:29:47.393Z,98888.41
2023-03-27T16:32:50.203Z,98887.38
2023-03-27T16:35:53.940Z,98898.94
2023-03-27T16:38:57.020Z,98910.97
2023-03-27T16:42:00.509Z,98910.47
2023-03-27T16:45:05.335Z,98922.75
2023-03-27T16:48:09.743Z,98938.88
2023-03-27T16:51:13.093Z,98943.84
2023-03-27T16:54:16.398Z,98964.34
2023-03-27T16:57:19.425Z,98964.75
2023-03-27T17:00:26.835Z,98972.09
2023-03-27T17:03:29.679Z,98975.16
2023-03-27T17:06:36.485Z,98989.16
2023-03-27T17:09:39.333Z,98999.78
2023-03-27T17:12:43.282Z,99015.16
2023-03-27T17:15:49.403Z,99009.44
2023-03-27T17:18:53.637Z,99028.28
2023-03-27T17:21:56.343Z,99033.84
2023-03-27T17:25:02.316Z,99041.56
2023-03-27T17:28:07.125Z,99051.94
2023-03-27T17:31:10.156Z,99062.06
2023-03-27T17:34:13.290Z,99070.91
2023-03-27T17:37:16.809Z,99082.28
2023-03-27T17:40:23.502Z,99075.06
2023-03-27T17:43:26.629Z,99087.69
2023-03-27T17:46:29.643Z,99092.94
2023-03-27T17:49:34.515Z,99098.91
2023-03-27T17:52:37.507Z,99104.03
2023-03-27T17:55:40.816Z,99103.47
2023-03-27T17:58:48.556Z,99102.78
2023-03-27T18:01:52.370Z,99124.25
2023-03-27T18:04:55.654Z,99131.34
2023-03-27T18:07:58.753Z,99130.78
2023-03-27T18:11:08.004Z,99136.44
2023-03-27T18:14:11.073Z,99146.25
2023-03-27T18:17:15.832Z,99155.53
2023-03-27T18:20:20.342Z,99168.69
2023-03-27T18:23:23.673Z,99175.72
2023-03-27T18:26:26.799Z,99183.19
2023-03-27T18:29:34.038Z,99174.84
2023-03-27T18:32:42.774Z,99181.06
2023-03-27T18:35:46.547Z,99192.97
2023-03-27T18:38:50.403Z,99181.00
2023-03-27T18:41:54.910Z,99188.06
2023-03-27T18:44:57.906Z,99179.91
2023-03-27T18:48:04.121Z,99189.41
2023-03-27T18:51:08.517Z,99172.16
2023-03-27T18:54:13.406Z,99186.06
2023-03-27T18:57:19.976Z,99185.37
2023-03-27T19:00:24.212Z,99183.72
2023-03-27T19:03:30.466Z,99178.31
2023-03-27T19:06:35.033Z,99186.59
2023-03-27T19:09:41.419Z,99198.63
2023-03-27T19:12:45.037Z,99205.00
2023-03-27T19:15:49.101Z,99201.13
2023-03-27T19:18:54.357Z,99212.59
2023-03-27T19:21:57.072Z,99218.81
2023-03-27T19:25:02.313Z,99220.31
2023-03-27T19:28:06.260Z,99231.13
2023-03-27T19:31:11.331Z,99229.03
2023-03-27T19:34:14.378Z,99234.03
2023-03-27T19:37:17.704Z,99250.00
2023-03-27T19:40:20.729Z,99245.31
2023-03-27T19:43:23.988Z,99248.59
2023-03-27T19:46:27.732Z,99252.31
2023-03-27T19:49:31.859Z,99260.91
2023-03-27T19:52:36.078Z,99267.97
2023-03-27T19:55:39.462Z,99275.59
2023-03-27T19:58:42.181Z,99272.00
2023-03-27T20:01:45.350Z,99283.47
2023-03-27T20:04:48.369Z,99273.50
2023-03-27T20:07:51.628Z,99292.06
2023-03-27T20:11:01.052Z,99279.69
2023-03-27T20:14:04.026Z,99297.13
2023-03-27T20:17:12.114Z,99301.41
2023-03-27T20:20:21.189Z,99302.75
2023-03-27T20:23:32.453Z,99296.81
2023-03-27T20:26:39.468Z,99301.88
2023-03-27T20:29:42.737Z,99316.72
2023-03-27T20:32:45.356Z,99290.78
2023-03-27T20:35:48.273Z,99290.66
2023-03-27T20:38:52.881Z,99308.53
2023-03-27T20:41:59.204Z,99324.97
2023-03-27T20:45:04.502Z,99314.66
2023-03-27T20:48:08.931Z,99324.84
2023-03-27T20:51:17.669Z,99316.78
2023-03-27T20:54:20.787Z,99323.56
2023-03-27T20:57:24.064Z,99333.34
2023-03-27T21:00:28.235Z,99338.72
2023-03-27T21:03:36.858Z,99330.59
2023-03-27T21:06:40.800Z,99342.31
2023-03-27T21:09:43.395Z,99347.41
2023-03-27T21:12:48.435Z,99347.97
2023-03-27T21:15:51.060Z,99357.66
2023-03-27T21:18:54.321Z,99356.09
2023-03-27T21:21:57.134Z,99350.16
2023-03-27T21:25:00.006Z,99369.41
2023-03-27T21:28:02.576Z,99368.31
2023-03-27T21:31:07.877Z,99369.47
2023-03-27T21:34:10.994Z,99373.12
2023-03-27T21:37:14.012Z,99388.88
2023-03-27T21:40:17.117Z,99394.25
2023-03-27T21:43:21.431Z,99398.78
2023-03-27T21:46:24.065Z,99405.81
2023-03-27T21:49:29.982Z,99410.44
2023-03-27T21:52:32.577Z,99420.03
2023-03-27T21:55:35.855Z,99422.16
2023-03-27T21:58:38.559Z,99419.44
2023-03-27T22:01:41.366Z,99431.34
2023-03-27T22:04:44.514Z,99424.66
2023-03-27T22:07:47.193Z,99430.84
2023-03-27T22:10:57.566Z,99441.25
2023-03-27T22:14:00.722Z,99445.91
2023-03-27T22:17:03.630Z,99450.94
2023-03-27T22:20:07.914Z,99453.66
2023-03-27T22:23:11.827Z,99463.31
2023-03-27T22:26:14.330Z,99464.75
2023-03-27T22:29:17.508Z,99473.34
2023-03-27T22:32:20.746Z,99465.50
2023-03-27T22:35:23.640Z,99453.56
2023-03-27T22:38:29.342Z,99476.06
2023-03-27T22:41:35.322Z,99467.16
2023-03-27T22:44:37.903Z,99472.28
2023-03-27T22:47:40.779Z,99470.13
2023-03-27T22:50:44.397Z,99481.34
2023-03-27T22:53:47.259Z,99482.78
2023-03-27T22:56:49.926Z,99490.87
2023-03-27T22:59:53.497Z,99508.66
2023-03-27T23:02:56.217Z,99504.09
2023-03-27T23:05:59.349Z,99499.72
2023-03-27T23:09:02.087Z,99501.72
2023-03-27T23:12:05.595Z,99507.53
2023-03-27T23:15:08.750Z,99514.03
2023-03-27T23:18:11.677Z,99520.47
2023-03-27T23:21:18.608Z,99514.59
2023-03-27T23:24:21.632Z,99537.75
2023-03-27T23:27:24.109Z,99538.19
2023-03-27T23:30:29.212Z,99561.91
2023-03-27T23:33:40.917Z,99555.84
2023-03-27T23:36:44.189Z,99552.25
2023-03-27T23:39:47.075Z,99569.06
2023-03-27T23:42:50.018Z,99568.22
2023-03-27T23:45:53.310Z,99564.88
2023-03-27T23:48:56.536Z,99568.19
2023-03-27T23:51:59.682Z,99577.62
2023-03-27T23:55:02.711Z,99580.13
2023-03-27T23:58:05.567Z,99572.88
